createdAt,value
2017-11-08T00:00:39.635Z,79.90
2017-11-08T00:03:07.176Z,79.10
2017-11-08T00:05:35.487Z,80.10
2017-11-08T00:08:03.047Z,79.20
2017-11-08T00:10:30.594Z,79.50
2017-11-08T00:12:58.269Z,79.40
2017-11-08T00:15:25.832Z,79.30
2017-11-08T00:17:55.408Z,80.90
2017-11-08T00:20:23.004Z,79.60
2017-11-08T00:22:50.571Z,79.20
2017-11-08T00:25:18.103Z,80.00
2017-11-08T00:27:45.646Z,79.80
2017-11-08T00:30:13.220Z,79.50
2017-11-08T00:32:40.760Z,79.70
2017-11-08T00:35:08.289Z,79.80
2017-11-08T00:37:35.846Z,79.60
2017-11-08T00:40:03.393Z,79.50
2017-11-08T00:42:30.927Z,79.70
2017-11-08T00:44:58.487Z,79.20
2017-11-08T00:47:26.014Z,79.70
2017-11-08T00:49:53.572Z,79.60
2017-11-08T00:52:21.141Z,79.20
2017-11-08T00:54:49.437Z,80.60
2017-11-08T01:00:15.981Z,78.80
2017-11-08T01:02:43.558Z,79.10
2017-11-08T01:05:11.105Z,79.10
2017-11-08T01:07:38.640Z,78.90
2017-11-08T01:10:06.211Z,79.30
2017-11-08T01:12:34.525Z,79.70
2017-11-08T01:15:02.060Z,79.40
2017-11-08T01:17:29.608Z,79.50
2017-11-08T01:19:57.146Z,79.40
2017-11-08T01:22:24.685Z,79.50
2017-11-08T01:24:52.242Z,79.70
2017-11-08T01:27:19.776Z,79.70
2017-11-08T01:29:47.306Z,79.50
2017-11-08T01:32:14.873Z,79.80
2017-11-08T01:34:42.416Z,79.30
2017-11-08T01:40:14.962Z,79.00
2017-11-08T01:42:42.527Z,79.30
2017-11-08T01:45:10.102Z,79.40
2017-11-08T01:47:37.657Z,79.70
2017-11-08T01:50:05.998Z,80.70
2017-11-08T01:52:33.535Z,79.50
2017-11-08T01:55:01.091Z,79.30
2017-11-08T01:57:28.655Z,79.60
2017-11-08T01:59:56.188Z,79.40
2017-11-08T02:02:23.724Z,79.40
2017-11-08T02:04:51.281Z,79.30
2017-11-08T02:07:18.807Z,80.60
2017-11-08T02:09:46.350Z,79.80
2017-11-08T02:12:13.929Z,79.70
2017-11-08T02:14:42.235Z,79.40
2017-11-08T02:17:09.783Z,79.60
2017-11-08T02:19:40.751Z,79.20
2017-11-08T02:22:10.448Z,79.60
2017-11-08T02:24:41.623Z,79.60
2017-11-08T02:27:12.363Z,79.40
2017-11-08T02:29:40.080Z,79.00
2017-11-08T02:32:07.629Z,78.50
2017-11-08T02:34:35.171Z,78.30
2017-11-08T02:37:02.704Z,78.80
2017-11-08T02:39:30.269Z,79.00
2017-11-08T02:41:57.874Z,79.30
2017-11-08T02:44:25.408Z,78.50
2017-11-08T02:46:58.931Z,78.80
2017-11-08T02:49:26.534Z,78.50
2017-11-08T02:51:54.081Z,79.00
2017-11-08T02:54:23.599Z,79.40
2017-11-08T02:56:51.894Z,79.50
2017-11-08T02:59:19.443Z,79.20
2017-11-08T03:01:47.000Z,79.10
2017-11-08T03:04:14.545Z,79.10
2017-11-08T03:06:42.101Z,79.10
2017-11-08T03:09:09.665Z,78.80
2017-11-08T03:11:37.986Z,79.60
2017-11-08T03:14:05.545Z,79.00
2017-11-08T03:16:33.109Z,79.70
2017-11-08T03:19:00.645Z,79.00
2017-11-08T03:21:28.189Z,79.70
2017-11-08T03:23:55.752Z,78.90
2017-11-08T03:26:23.296Z,78.90
2017-11-08T03:28:50.823Z,79.80
2017-11-08T03:31:18.406Z,79.40
2017-11-08T03:33:45.967Z,79.10
2017-11-08T03:36:13.512Z,79.00
2017-11-08T03:38:41.074Z,79.70
2017-11-08T03:41:08.635Z,79.50
2017-11-08T03:43:36.236Z,79.80
2017-11-08T03:46:03.807Z,79.70
2017-11-08T03:48:31.333Z,79.30
2017-11-08T03:50:58.861Z,79.70
2017-11-08T03:53:26.418Z,79.60
2017-11-08T03:55:53.964Z,80.10
2017-11-08T03:58:21.507Z,80.40
2017-11-08T04:00:49.070Z,79.40
2017-11-08T04:03:16.636Z,80.70
2017-11-08T04:05:44.179Z,80.00
2017-11-08T04:08:11.716Z,80.30
2017-11-08T04:10:39.252Z,80.50
2017-11-08T04:13:06.805Z,80.80
2017-11-08T04:15:34.356Z,80.50
2017-11-08T04:18:01.894Z,79.60
2017-11-08T04:20:29.444Z,79.20
2017-11-08T04:22:56.999Z,79.20
2017-11-08T04:25:24.538Z,81.00
2017-11-08T04:27:52.096Z,80.90
2017-11-08T04:30:19.650Z,81.30
2017-11-08T04:32:47.173Z,81.70
2017-11-08T04:35:14.701Z,81.50
2017-11-08T04:37:42.245Z,81.70
2017-11-08T04:40:09.782Z,81.60
2017-11-08T04:42:37.316Z,81.40
2017-11-08T04:45:05.432Z,81.60
2017-11-08T04:47:32.973Z,81.80
2017-11-08T04:50:00.507Z,82.30
2017-11-08T04:52:28.076Z,81.70
2017-11-08T04:54:56.383Z,83.00
2017-11-08T04:57:23.902Z,82.00
2017-11-08T04:59:51.498Z,82.50
2017-11-08T05:02:19.013Z,82.90
2017-11-08T05:04:46.534Z,82.50
2017-11-08T05:07:14.100Z,83.10
2017-11-08T05:09:41.657Z,83.80
2017-11-08T05:12:09.187Z,84.00
2017-11-08T05:14:36.736Z,84.30
2017-11-08T05:17:04.267Z,83.80
2017-11-08T05:19:31.786Z,84.30
2017-11-08T05:21:59.347Z,84.90
2017-11-08T05:24:26.880Z,84.90
2017-11-08T05:26:55.179Z,85.10
2017-11-08T05:29:22.759Z,84.40
2017-11-08T05:31:50.286Z,84.50
2017-11-08T05:34:17.811Z,85.10
2017-11-08T05:36:45.368Z,84.50
2017-11-08T05:39:12.908Z,84.90
2017-11-08T05:41:40.435Z,86.50
2017-11-08T05:44:07.989Z,85.90
2017-11-08T05:46:36.280Z,86.80
2017-11-08T05:49:03.806Z,86.30
2017-11-08T05:51:31.366Z,87.40
2017-11-08T05:53:58.923Z,87.10
2017-11-08T05:56:26.462Z,86.70
2017-11-08T05:58:54.012Z,86.60
2017-11-08T06:01:21.550Z,86.50
2017-11-08T06:03:49.075Z,86.50
2017-11-08T06:06:16.643Z,86.00
2017-11-08T06:08:44.536Z,86.40
2017-11-08T06:11:12.062Z,86.20
2017-11-08T06:13:40.386Z,87.40
2017-11-08T06:16:07.941Z,87.10
2017-11-08T06:18:35.497Z,87.30
2017-11-08T06:21:04.034Z,88.00
2017-11-08T06:23:31.571Z,88.00
2017-11-08T06:25:59.108Z,87.90
2017-11-08T06:28:26.648Z,88.70
2017-11-08T06:30:54.950Z,88.10
2017-11-08T06:33:22.476Z,87.50
2017-11-08T06:35:50.042Z,87.50
2017-11-08T06:38:17.596Z,87.90
2017-11-08T06:40:45.136Z,87.60
2017-11-08T06:43:12.693Z,87.60
2017-11-08T06:45:41.034Z,87.70
2017-11-08T06:48:08.783Z,87.00
2017-11-08T06:50:38.183Z,87.00
2017-11-08T06:53:05.722Z,87.70
2017-11-08T06:55:36.022Z,88.00
2017-11-08T06:58:03.596Z,86.90
2017-11-08T07:00:31.919Z,88.10
2017-11-08T07:02:59.463Z,87.60
2017-11-08T07:05:27.021Z,87.30
2017-11-08T07:07:54.567Z,86.70
2017-11-08T07:10:22.124Z,86.60
2017-11-08T07:12:49.684Z,86.50
2017-11-08T07:15:18.113Z,87.60
2017-11-08T07:17:45.634Z,86.80
2017-11-08T07:20:13.199Z,86.30
2017-11-08T07:22:40.735Z,86.70
2017-11-08T07:25:08.297Z,86.10
2017-11-08T07:27:35.871Z,86.70
2017-11-08T07:30:04.282Z,87.30
2017-11-08T07:32:31.896Z,86.80
2017-11-08T07:34:59.508Z,87.20
2017-11-08T07:37:27.232Z,86.50
2017-11-08T07:39:54.896Z,86.60
2017-11-08T07:42:22.459Z,87.10
2017-11-08T07:44:50.000Z,86.80
2017-11-08T07:47:18.386Z,86.90
2017-11-08T07:49:47.161Z,87.40
2017-11-08T07:52:14.755Z,87.20
2017-11-08T07:57:54.992Z,86.10
2017-11-08T08:00:22.645Z,86.30
2017-11-08T08:02:50.159Z,87.10
2017-11-08T08:05:17.688Z,87.20
2017-11-08T08:07:46.283Z,86.40
2017-11-08T08:10:13.806Z,87.30
2017-11-08T08:12:41.324Z,86.50
2017-11-08T08:15:08.883Z,86.30
2017-11-08T08:17:36.435Z,86.10
2017-11-08T08:20:07.831Z,87.50
2017-11-08T08:22:35.382Z,86.40
2017-11-08T08:25:02.904Z,87.00
2017-11-08T08:27:30.430Z,87.20
2017-11-08T08:29:57.967Z,87.50
2017-11-08T08:32:25.475Z,86.90
2017-11-08T08:34:53.017Z,87.10
2017-11-08T08:37:20.567Z,87.30
2017-11-08T08:39:48.084Z,87.60
2017-11-08T08:42:15.622Z,86.90
2017-11-08T08:44:43.174Z,87.40
2017-11-08T08:47:10.700Z,87.30
2017-11-08T08:49:38.231Z,87.00
2017-11-08T08:52:05.788Z,88.20
2017-11-08T08:54:33.323Z,88.90
2017-11-08T08:57:01.626Z,89.70
2017-11-08T08:59:29.177Z,89.10
2017-11-08T09:01:56.699Z,89.00
2017-11-08T09:04:24.266Z,89.80
2017-11-08T09:06:52.811Z,90.00
2017-11-08T09:09:20.345Z,89.30
2017-11-08T09:11:47.873Z,90.00
2017-11-08T09:14:15.435Z,89.30
2017-11-08T09:16:43.660Z,89.40
2017-11-08T09:19:11.196Z,89.20
2017-11-08T09:21:38.777Z,89.10
2017-11-08T09:24:06.316Z,88.90
2017-11-08T09:26:33.981Z,88.80
2017-11-08T09:29:04.272Z,90.10
2017-11-08T09:31:37.201Z,89.50
2017-11-08T09:34:04.795Z,89.40
2017-11-08T09:36:35.104Z,88.60
2017-11-08T09:39:02.625Z,88.20
2017-11-08T09:41:32.095Z,88.50
2017-11-08T09:43:59.687Z,88.60
2017-11-08T09:46:29.035Z,89.20
2017-11-08T09:48:56.594Z,88.30
2017-11-08T09:51:24.139Z,88.40
2017-11-08T09:53:51.675Z,88.30
2017-11-08T09:56:19.216Z,88.40
2017-11-08T09:58:46.753Z,88.20
2017-11-08T10:01:15.922Z,89.40
2017-11-08T10:03:44.248Z,89.60
2017-11-08T10:06:11.786Z,89.60
2017-11-08T10:08:41.099Z,88.90
2017-11-08T10:11:23.541Z,89.40
2017-11-08T10:13:51.072Z,89.50
2017-11-08T10:16:18.598Z,88.90
2017-11-08T10:18:47.216Z,89.00
2017-11-08T10:21:14.754Z,88.80
2017-11-08T10:23:42.290Z,88.40
2017-11-08T10:26:09.836Z,89.40
2017-11-08T10:28:37.532Z,89.50
2017-11-08T10:31:05.099Z,88.30
2017-11-08T10:33:32.663Z,88.60
2017-11-08T10:36:00.193Z,88.80
2017-11-08T10:38:27.722Z,89.10
2017-11-08T10:40:56.043Z,90.00
2017-11-08T10:43:23.527Z,89.80
2017-11-08T10:45:51.053Z,90.20
2017-11-08T10:48:18.617Z,89.50
2017-11-08T10:50:46.140Z,90.00
2017-11-08T10:53:13.683Z,90.00
2017-11-08T10:55:41.265Z,89.80
2017-11-08T10:58:08.798Z,89.30
2017-11-08T11:00:37.235Z,90.00
2017-11-08T11:03:06.443Z,89.30
2017-11-08T11:05:34.738Z,90.00
2017-11-08T11:08:02.278Z,89.70
2017-11-08T11:10:29.853Z,89.50
2017-11-08T11:13:03.371Z,89.70
2017-11-08T11:15:30.941Z,89.50
2017-11-08T11:17:58.498Z,89.70
2017-11-08T11:20:27.829Z,89.50
2017-11-08T11:22:56.152Z,89.90
2017-11-08T11:25:26.312Z,89.30
2017-11-08T11:27:53.840Z,89.70
2017-11-08T11:30:25.932Z,89.70
2017-11-08T11:32:53.455Z,90.00
2017-11-08T11:35:21.012Z,90.00
2017-11-08T11:37:49.051Z,90.00
2017-11-08T11:40:17.362Z,90.00
2017-11-08T11:42:44.961Z,90.10
2017-11-08T11:45:12.579Z,89.70
2017-11-08T11:47:40.111Z,89.20
2017-11-08T11:50:07.755Z,89.60
2017-11-08T11:52:35.427Z,89.80
2017-11-08T11:55:03.753Z,90.30
2017-11-08T11:57:31.309Z,90.00
2017-11-08T12:00:05.456Z,90.20
2017-11-08T12:02:32.979Z,90.20
2017-11-08T12:05:01.346Z,90.70
2017-11-08T12:07:32.637Z,90.70
2017-11-08T12:10:02.963Z,90.30
2017-11-08T12:12:30.501Z,90.60
2017-11-08T12:14:58.055Z,90.20
2017-11-08T12:17:25.588Z,90.30
2017-11-08T12:19:53.131Z,90.30
2017-11-08T12:22:20.689Z,90.40
2017-11-08T12:24:48.229Z,90.20
2017-11-08T12:27:15.777Z,90.60
2017-11-08T12:29:43.326Z,90.50
2017-11-08T12:32:10.859Z,90.50
2017-11-08T12:34:39.340Z,90.30
2017-11-08T12:37:06.893Z,90.70
2017-11-08T12:39:35.244Z,90.60
2017-11-08T12:42:03.552Z,90.60
2017-11-08T12:47:33.181Z,90.50
2017-11-08T12:50:00.764Z,90.80
2017-11-08T12:52:29.053Z,91.00
2017-11-08T12:54:56.590Z,90.90
2017-11-08T12:57:24.150Z,90.70
2017-11-08T12:59:51.691Z,90.80
2017-11-08T13:02:19.226Z,90.70
2017-11-08T13:04:46.824Z,90.50
2017-11-08T13:07:14.376Z,90.50
2017-11-08T13:09:41.987Z,90.50
2017-11-08T13:12:09.572Z,90.40
2017-11-08T13:14:37.133Z,90.40
2017-11-08T13:17:05.434Z,90.80
2017-11-08T13:19:32.997Z,90.70
2017-11-08T13:22:00.530Z,90.70
2017-11-08T13:24:28.082Z,90.50
2017-11-08T13:26:55.639Z,90.60
2017-11-08T13:29:23.173Z,90.50
2017-11-08T13:31:50.717Z,90.60
2017-11-08T13:34:18.289Z,90.80
2017-11-08T13:36:45.815Z,90.80
2017-11-08T13:39:13.332Z,90.90
2017-11-08T13:41:40.880Z,91.00
2017-11-08T13:44:08.422Z,91.10
2017-11-08T13:46:36.753Z,91.30
2017-11-08T13:49:05.075Z,91.20
2017-11-08T13:51:32.839Z,91.30
2017-11-08T13:54:00.413Z,91.10
2017-11-08T13:56:28.781Z,91.60
2017-11-08T13:58:56.327Z,91.00
2017-11-08T14:01:23.865Z,91.40
2017-11-08T14:03:52.195Z,91.60
2017-11-08T14:06:19.720Z,91.40
2017-11-08T14:08:47.313Z,91.30
2017-11-08T14:11:15.658Z,91.80
2017-11-08T14:13:43.180Z,91.30
2017-11-08T14:16:10.737Z,91.60
2017-11-08T14:18:38.299Z,91.40
2017-11-08T14:21:05.852Z,91.60
2017-11-08T14:23:33.391Z,91.40
2017-11-08T14:26:00.972Z,91.80
2017-11-08T14:28:28.515Z,91.50
2017-11-08T14:30:58.973Z,91.80
2017-11-08T14:33:26.539Z,91.70
2017-11-08T14:35:54.896Z,91.90
2017-11-08T14:38:22.445Z,91.70
2017-11-08T14:40:50.005Z,91.50
2017-11-08T14:43:18.339Z,91.90
2017-11-08T14:45:45.869Z,91.90
2017-11-08T14:48:13.443Z,91.80
2017-11-08T14:50:40.992Z,91.90
2017-11-08T14:53:08.588Z,92.00
2017-11-08T14:55:36.929Z,92.40
2017-11-08T14:58:04.455Z,92.20
2017-11-08T15:00:32.020Z,92.00
2017-11-08T15:02:59.583Z,92.20
2017-11-08T15:05:27.117Z,92.20
2017-11-08T15:07:54.662Z,92.40
2017-11-08T15:10:22.228Z,92.20
2017-11-08T15:12:49.776Z,92.20
2017-11-08T15:15:28.096Z,92.70
2017-11-08T15:17:56.388Z,92.50
2017-11-08T15:20:23.983Z,92.50
2017-11-08T15:22:51.975Z,92.40
2017-11-08T15:25:19.545Z,92.30
2017-11-08T15:27:47.095Z,92.50
2017-11-08T15:30:20.310Z,92.60
2017-11-08T15:32:48.629Z,93.10
2017-11-08T15:35:16.194Z,93.00
2017-11-08T15:37:43.800Z,93.40
2017-11-08T15:43:11.253Z,92.70
2017-11-08T15:45:39.089Z,93.10
2017-11-08T15:48:07.406Z,93.70
2017-11-08T15:50:34.993Z,93.20
2017-11-08T15:53:02.544Z,93.60
2017-11-08T15:55:30.076Z,93.20
2017-11-08T15:57:58.396Z,93.50
2017-11-08T16:00:25.932Z,93.40
2017-11-08T16:02:53.472Z,93.30
2017-11-08T16:05:21.084Z,93.30
2017-11-08T16:07:48.638Z,93.20
2017-11-08T16:10:16.176Z,93.50
2017-11-08T16:12:44.630Z,93.50
2017-11-08T16:15:12.171Z,93.30
2017-11-08T16:17:40.485Z,93.70
2017-11-08T16:20:13.725Z,93.70
2017-11-08T16:22:41.256Z,93.40
2017-11-08T16:25:08.787Z,93.20
2017-11-08T16:27:37.116Z,93.50
2017-11-08T16:30:04.646Z,93.30
2017-11-08T16:32:32.191Z,93.40
2017-11-08T16:34:59.744Z,93.00
2017-11-08T16:37:27.285Z,93.20
2017-11-08T16:39:54.821Z,93.20
2017-11-08T16:42:22.364Z,92.90
2017-11-08T16:44:49.888Z,93.40
2017-11-08T16:47:17.411Z,93.30
2017-11-08T16:49:44.977Z,93.10
2017-11-08T16:52:12.511Z,93.40
2017-11-08T16:54:40.056Z,93.60
2017-11-08T16:57:07.624Z,93.40
2017-11-08T16:59:35.193Z,93.40
2017-11-08T17:02:02.733Z,93.30
2017-11-08T17:04:30.315Z,93.30
2017-11-08T17:06:58.628Z,93.80
2017-11-08T17:09:26.155Z,93.80
2017-11-08T17:11:53.732Z,93.40
2017-11-08T17:14:21.252Z,93.20
2017-11-08T17:16:48.793Z,93.40
2017-11-08T17:19:16.352Z,93.40
2017-11-08T17:21:43.887Z,93.10
2017-11-08T17:24:11.425Z,93.10
2017-11-08T17:26:38.997Z,93.40
2017-11-08T17:29:06.536Z,93.20
2017-11-08T17:31:34.844Z,93.70
2017-11-08T17:34:03.165Z,93.60
2017-11-08T17:36:30.698Z,93.30
2017-11-08T17:38:58.264Z,93.20
2017-11-08T17:41:25.833Z,93.20
2017-11-08T17:43:54.140Z,93.60
2017-11-08T17:46:21.707Z,93.30
2017-11-08T17:48:49.274Z,93.10
2017-11-08T17:51:27.872Z,93.00
2017-11-08T17:53:55.531Z,93.00
2017-11-08T17:56:24.154Z,93.00
2017-11-08T17:58:51.931Z,93.00
2017-11-08T18:01:19.628Z,93.10
2017-11-08T18:03:47.985Z,93.40
2017-11-08T18:06:15.551Z,93.00
2017-11-08T18:08:43.116Z,93.20
2017-11-08T18:11:10.647Z,93.10
2017-11-08T18:13:38.176Z,93.10
2017-11-08T18:16:05.774Z,92.90
2017-11-08T18:18:33.605Z,93.10
2017-11-08T18:21:01.275Z,92.70
2017-11-08T18:23:29.013Z,92.60
2017-11-08T18:25:56.741Z,92.90
2017-11-08T18:28:24.901Z,92.60
2017-11-08T18:30:52.712Z,92.60
2017-11-08T18:33:20.328Z,92.40
2017-11-08T18:35:47.933Z,92.50
2017-11-08T18:38:15.552Z,92.20
2017-11-08T18:40:43.929Z,92.50
2017-11-08T18:43:11.579Z,92.20
2017-11-08T18:45:39.184Z,92.10
2017-11-08T18:48:06.741Z,92.30
2017-11-08T18:50:34.313Z,92.10
2017-11-08T18:53:01.916Z,92.20
2017-11-08T18:55:29.589Z,92.30
2017-11-08T18:57:57.623Z,92.00
2017-11-08T19:00:35.771Z,92.40
2017-11-08T19:03:03.404Z,92.30
2017-11-08T19:05:31.405Z,92.20
2017-11-08T19:07:59.067Z,92.20
2017-11-08T19:10:27.422Z,92.60
2017-11-08T19:12:56.767Z,92.20
2017-11-08T19:15:25.934Z,92.20
2017-11-08T19:17:54.146Z,92.20
2017-11-08T19:20:21.761Z,92.20
2017-11-08T19:22:49.634Z,92.00
2017-11-08T19:25:17.235Z,92.20
2017-11-08T19:27:45.074Z,92.10
2017-11-08T19:30:12.660Z,92.30
2017-11-08T19:32:40.221Z,92.30
2017-11-08T19:35:07.783Z,92.10
2017-11-08T19:37:36.144Z,92.20
2017-11-08T19:40:03.745Z,92.50
2017-11-08T19:42:31.456Z,92.20
2017-11-08T19:44:59.795Z,92.50
2017-11-08T19:47:27.706Z,92.20
2017-11-08T19:49:55.312Z,91.80
2017-11-08T19:52:22.887Z,91.90
2017-11-08T19:54:50.463Z,91.80
2017-11-08T19:57:18.053Z,92.00
2017-11-08T19:59:46.418Z,92.10
2017-11-08T20:02:14.742Z,92.20
2017-11-08T20:04:42.506Z,92.10
2017-11-08T20:07:10.300Z,91.80
2017-11-08T20:09:38.833Z,91.70
2017-11-08T20:12:06.400Z,91.80
2017-11-08T20:14:34.742Z,92.20
2017-11-08T20:17:02.293Z,91.80
2017-11-08T20:19:31.273Z,91.70
2017-11-08T20:21:59.605Z,92.30
2017-11-08T20:24:27.388Z,91.90
2017-11-08T20:26:55.784Z,92.40
2017-11-08T20:29:23.390Z,91.90
2017-11-08T20:31:51.698Z,92.40
2017-11-08T20:34:19.250Z,92.30
2017-11-08T20:36:47.088Z,91.90
2017-11-08T20:39:14.632Z,92.10
2017-11-08T20:41:42.164Z,92.50
2017-11-08T20:44:10.488Z,92.50
2017-11-08T20:46:38.018Z,92.50
2017-11-08T20:49:05.566Z,92.30
2017-11-08T20:51:33.131Z,92.50
2017-11-08T20:54:00.978Z,92.60
2017-11-08T20:56:28.661Z,92.50
2017-11-08T20:58:56.258Z,92.20
2017-11-08T21:01:23.829Z,92.60
2017-11-08T21:03:51.387Z,92.20
2017-11-08T21:06:18.983Z,92.20
2017-11-08T21:08:46.528Z,92.30
2017-11-08T21:11:14.083Z,92.20
2017-11-08T21:13:41.653Z,92.30
2017-11-08T21:16:09.176Z,92.00
2017-11-08T21:18:36.712Z,92.10
2017-11-08T21:21:04.311Z,92.10
2017-11-08T21:23:32.055Z,92.10
2017-11-08T21:25:59.591Z,91.90
2017-11-08T21:28:28.072Z,92.20
2017-11-08T21:30:55.632Z,92.50
2017-11-08T21:33:23.632Z,92.80
2017-11-08T21:35:51.263Z,92.40
2017-11-08T21:38:21.510Z,92.80
2017-11-08T21:40:51.692Z,92.30
2017-11-08T21:43:20.419Z,92.30
2017-11-08T21:45:48.458Z,92.40
2017-11-08T21:48:18.470Z,92.30
2017-11-08T21:50:46.614Z,92.40
2017-11-08T21:53:28.815Z,92.40
2017-11-08T21:55:58.394Z,92.40
2017-11-08T22:01:21.469Z,92.60
2017-11-08T22:04:01.079Z,92.80
2017-11-08T22:06:30.640Z,92.70
2017-11-08T22:09:11.123Z,92.80
2017-11-08T22:11:39.020Z,92.80
2017-11-08T22:14:07.556Z,92.50
2017-11-08T22:16:35.888Z,92.80
2017-11-08T22:19:04.080Z,92.70
2017-11-08T22:21:32.525Z,93.20
2017-11-08T22:24:00.108Z,92.80
2017-11-08T22:26:29.469Z,92.70
2017-11-08T22:28:57.067Z,92.60
2017-11-08T22:31:24.866Z,92.80
2017-11-08T22:33:52.420Z,92.60
2017-11-08T22:36:20.693Z,92.70
2017-11-08T22:38:49.469Z,92.90
2017-11-08T22:41:18.852Z,92.80
2017-11-08T22:43:46.420Z,92.60
2017-11-08T22:46:13.991Z,92.40
2017-11-08T22:48:41.669Z,92.80
2017-11-08T22:51:09.972Z,93.00
2017-11-08T22:53:38.458Z,93.00
2017-11-08T22:56:06.885Z,92.40
2017-11-08T22:58:34.820Z,92.30
2017-11-08T23:01:02.641Z,92.50
2017-11-08T23:03:30.422Z,92.50
2017-11-08T23:06:07.503Z,92.70
2017-11-08T23:08:42.335Z,92.80
2017-11-08T23:11:11.037Z,92.40
2017-11-08T23:13:43.991Z,92.20
2017-11-08T23:16:13.415Z,92.40
2017-11-08T23:18:49.141Z,92.20
2017-11-08T23:21:22.686Z,92.60
2017-11-08T23:23:56.107Z,92.50
2017-11-08T23:26:24.136Z,92.50
2017-11-08T23:28:51.679Z,92.50
2017-11-08T23:31:19.979Z,92.70
2017-11-08T23:33:47.515Z,92.50
2017-11-08T23:36:15.054Z,92.40
2017-11-08T23:38:42.604Z,92.60
2017-11-08T23:41:10.164Z,92.50
2017-11-08T23:43:37.707Z,92.90
2017-11-08T23:46:05.244Z,92.60
2017-11-08T23:48:32.810Z,92.60
2017-11-08T23:51:00.353Z,92.60
2017-11-08T23:53:27.909Z,92.50
2017-11-08T23:55:55.478Z,92.70
2017-11-08T23:58:23.810Z,92.60
